sensor_id;sensor_type;location;lat;lon;timestamp;P1;durP1;ratioP1;P2;durP2;ratioP2
10275;SDS011;5183;51.190;6.820;2022-08-24T00:00:13;5.33;;;4.20;;
10275;SDS011;5183;51.190;6.820;2022-08-24T00:02:42;6.00;;;4.07;;
10275;SDS011;5183;51.190;6.820;2022-08-24T00:05:09;5.83;;;3.87;;
10275;SDS011;5183;51.190;6.820;2022-08-24T00:07:36;6.20;;;3.90;;
10275;SDS011;5183;51.190;6.820;2022-08-24T00:10:04;6.40;;;4.13;;
10275;SDS011;5183;51.190;6.820;2022-08-24T00:12:34;7.87;;;4.30;;
10275;SDS011;5183;51.190;6.820;2022-08-24T00:15:02;5.97;;;4.00;;
10275;SDS011;5183;51.190;6.820;2022-08-24T00:17:31;7.60;;;4.50;;
10275;SDS011;5183;51.190;6.820;2022-08-24T00:19:58;7.77;;;4.03;;
10275;SDS011;5183;51.190;6.820;2022-08-24T00:22:26;5.87;;;4.10;;
10275;SDS011;5183;51.190;6.820;2022-08-24T00:24:54;5.50;;;4.00;;
10275;SDS011;5183;51.190;6.820;2022-08-24T00:27:21;5.53;;;4.23;;
10275;SDS011;5183;51.190;6.820;2022-08-24T00:29:49;5.93;;;4.23;;
10275;SDS011;5183;51.190;6.820;2022-08-24T00:32:16;5.90;;;4.17;;
10275;SDS011;5183;51.190;6.820;2022-08-24T00:34:43;7.60;;;4.20;;
10275;SDS011;5183;51.190;6.820;2022-08-24T00:37:10;5.90;;;4.20;;
10275;SDS011;5183;51.190;6.820;2022-08-24T00:39:37;8.27;;;4.50;;
10275;SDS011;5183;51.190;6.820;2022-08-24T00:42:04;6.13;;;4.43;;
10275;SDS011;5183;51.190;6.820;2022-08-24T00:44:31;5.00;;;4.30;;
10275;SDS011;5183;51.190;6.820;2022-08-24T00:47:00;5.83;;;4.50;;
10275;SDS011;5183;51.190;6.820;2022-08-24T00:49:32;6.57;;;4.33;;
10275;SDS011;5183;51.190;6.820;2022-08-24T00:52:03;6.17;;;4.37;;
10275;SDS011;5183;51.190;6.820;2022-08-24T00:54:36;5.30;;;4.13;;
10275;SDS011;5183;51.190;6.820;2022-08-24T00:57:06;7.97;;;4.40;;
10275;SDS011;5183;51.190;6.820;2022-08-24T00:59:37;5.73;;;4.10;;
10275;SDS011;5183;51.190;6.820;2022-08-24T01:02:11;7.27;;;5.00;;
10275;SDS011;5183;51.190;6.820;2022-08-24T01:04:51;6.23;;;4.37;;
10275;SDS011;5183;51.190;6.820;2022-08-24T01:07:20;6.40;;;4.33;;
10275;SDS011;5183;51.190;6.820;2022-08-24T01:09:48;6.17;;;4.33;;
10275;SDS011;5183;51.190;6.820;2022-08-24T01:12:15;5.77;;;4.63;;
10275;SDS011;5183;51.190;6.820;2022-08-24T01:14:42;5.93;;;4.33;;
10275;SDS011;5183;51.190;6.820;2022-08-24T01:17:11;6.57;;;4.73;;
10275;SDS011;5183;51.190;6.820;2022-08-24T01:19:56;6.97;;;4.20;;
10275;SDS011;5183;51.190;6.820;2022-08-24T01:25:19;5.83;;;4.43;;
10275;SDS011;5183;51.190;6.820;2022-08-24T01:27:46;5.63;;;4.20;;
10275;SDS011;5183;51.190;6.820;2022-08-24T01:30:15;5.50;;;4.50;;
10275;SDS011;5183;51.190;6.820;2022-08-24T01:32:51;6.80;;;4.40;;
10275;SDS011;5183;51.190;6.820;2022-08-24T01:35:19;8.53;;;4.83;;
10275;SDS011;5183;51.190;6.820;2022-08-24T01:37:46;8.50;;;4.80;;
10275;SDS011;5183;51.190;6.820;2022-08-24T01:40:14;6.87;;;4.40;;
10275;SDS011;5183;51.190;6.820;2022-08-24T01:42:47;6.37;;;4.47;;
10275;SDS011;5183;51.190;6.820;2022-08-24T01:45:15;6.50;;;4.43;;
10275;SDS011;5183;51.190;6.820;2022-08-24T01:47:43;9.83;;;4.43;;
10275;SDS011;5183;51.190;6.820;2022-08-24T01:50:10;9.83;;;4.77;;
10275;SDS011;5183;51.190;6.820;2022-08-24T01:52:37;10.93;;;5.07;;
10275;SDS011;5183;51.190;6.820;2022-08-24T01:55:06;9.43;;;4.60;;
10275;SDS011;5183;51.190;6.820;2022-08-24T01:57:34;7.80;;;5.17;;
10275;SDS011;5183;51.190;6.820;2022-08-24T02:00:06;9.23;;;4.97;;
10275;SDS011;5183;51.190;6.820;2022-08-24T02:02:35;8.00;;;5.20;;
10275;SDS011;5183;51.190;6.820;2022-08-24T02:05:02;9.33;;;4.87;;
10275;SDS011;5183;51.190;6.820;2022-08-24T02:07:29;9.50;;;5.10;;
10275;SDS011;5183;51.190;6.820;2022-08-24T02:09:57;7.40;;;4.90;;
10275;SDS011;5183;51.190;6.820;2022-08-24T02:12:23;11.30;;;5.27;;
10275;SDS011;5183;51.190;6.820;2022-08-24T02:14:50;10.17;;;5.40;;
10275;SDS011;5183;51.190;6.820;2022-08-24T02:17:19;8.50;;;5.23;;
10275;SDS011;5183;51.190;6.820;2022-08-24T02:19:46;8.10;;;4.90;;
10275;SDS011;5183;51.190;6.820;2022-08-24T02:22:13;8.77;;;5.60;;
10275;SDS011;5183;51.190;6.820;2022-08-24T02:24:40;8.73;;;4.80;;
10275;SDS011;5183;51.190;6.820;2022-08-24T02:27:06;9.90;;;4.97;;
10275;SDS011;5183;51.190;6.820;2022-08-24T02:29:33;7.20;;;5.00;;
10275;SDS011;5183;51.190;6.820;2022-08-24T02:32:00;8.37;;;4.80;;
10275;SDS011;5183;51.190;6.820;2022-08-24T02:34:29;7.70;;;4.80;;
10275;SDS011;5183;51.190;6.820;2022-08-24T02:36:56;7.57;;;5.10;;
10275;SDS011;5183;51.190;6.820;2022-08-24T02:39:24;9.77;;;4.97;;
10275;SDS011;5183;51.190;6.820;2022-08-24T02:41:51;7.07;;;5.17;;
10275;SDS011;5183;51.190;6.820;2022-08-24T02:44:18;7.20;;;5.10;;
10275;SDS011;5183;51.190;6.820;2022-08-24T02:46:45;6.07;;;4.30;;
10275;SDS011;5183;51.190;6.820;2022-08-24T02:49:12;9.47;;;5.13;;
10275;SDS011;5183;51.190;6.820;2022-08-24T02:51:42;7.23;;;5.03;;
10275;SDS011;5183;51.190;6.820;2022-08-24T02:54:11;8.17;;;4.97;;
10275;SDS011;5183;51.190;6.820;2022-08-24T02:56:41;10.33;;;5.10;;
10275;SDS011;5183;51.190;6.820;2022-08-24T02:59:08;7.40;;;4.80;;
10275;SDS011;5183;51.190;6.820;2022-08-24T03:01:35;9.13;;;5.17;;
10275;SDS011;5183;51.190;6.820;2022-08-24T03:04:05;9.23;;;5.27;;
10275;SDS011;5183;51.190;6.820;2022-08-24T03:06:32;5.70;;;5.10;;
10275;SDS011;5183;51.190;6.820;2022-08-24T03:09:00;8.23;;;4.93;;
10275;SDS011;5183;51.190;6.820;2022-08-24T03:11:27;6.60;;;4.93;;
10275;SDS011;5183;51.190;6.820;2022-08-24T03:13:54;9.83;;;5.43;;
10275;SDS011;5183;51.190;6.820;2022-08-24T03:16:23;6.27;;;5.00;;
10275;SDS011;5183;51.190;6.820;2022-08-24T03:18:50;8.67;;;5.30;;
10275;SDS011;5183;51.190;6.820;2022-08-24T03:21:17;9.63;;;5.70;;
10275;SDS011;5183;51.190;6.820;2022-08-24T03:23:43;8.70;;;5.20;;
10275;SDS011;5183;51.190;6.820;2022-08-24T03:26:12;7.37;;;4.70;;
10275;SDS011;5183;51.190;6.820;2022-08-24T03:28:39;8.87;;;5.20;;
10275;SDS011;5183;51.190;6.820;2022-08-24T03:31:06;6.40;;;5.03;;
10275;SDS011;5183;51.190;6.820;2022-08-24T03:33:33;13.23;;;6.20;;
10275;SDS011;5183;51.190;6.820;2022-08-24T03:36:00;6.17;;;5.17;;
10275;SDS011;5183;51.190;6.820;2022-08-24T03:38:27;6.13;;;4.93;;
10275;SDS011;5183;51.190;6.820;2022-08-24T03:40:54;10.17;;;9.00;;
10275;SDS011;5183;51.190;6.820;2022-08-24T03:43:23;8.70;;;6.10;;
10275;SDS011;5183;51.190;6.820;2022-08-24T03:46:09;12.67;;;10.70;;
10275;SDS011;5183;51.190;6.820;2022-08-24T03:48:36;9.73;;;8.57;;
10275;SDS011;5183;51.190;6.820;2022-08-24T03:51:04;8.20;;;6.30;;
10275;SDS011;5183;51.190;6.820;2022-08-24T03:53:31;9.57;;;5.80;;
10275;SDS011;5183;51.190;6.820;2022-08-24T03:55:58;7.90;;;5.33;;
10275;SDS011;5183;51.190;6.820;2022-08-24T03:58:27;10.73;;;6.73;;
10275;SDS011;5183;51.190;6.820;2022-08-24T04:00:53;7.73;;;5.97;;
10275;SDS011;5183;51.190;6.820;2022-08-24T04:03:20;9.20;;;6.33;;
10275;SDS011;5183;51.190;6.820;2022-08-24T04:05:47;8.57;;;5.77;;
10275;SDS011;5183;51.190;6.820;2022-08-24T04:08:14;9.57;;;6.20;;
10275;SDS011;5183;51.190;6.820;2022-08-24T04:10:42;8.90;;;5.83;;
10275;SDS011;5183;51.190;6.820;2022-08-24T04:13:10;12.27;;;8.10;;
10275;SDS011;5183;51.190;6.820;2022-08-24T04:15:39;9.30;;;6.37;;
10275;SDS011;5183;51.190;6.820;2022-08-24T04:18:07;11.53;;;5.97;;
10275;SDS011;5183;51.190;6.820;2022-08-24T04:20:38;7.07;;;6.10;;
10275;SDS011;5183;51.190;6.820;2022-08-24T04:23:06;8.73;;;6.00;;
10275;SDS011;5183;51.190;6.820;2022-08-24T04:25:40;7.13;;;5.53;;
10275;SDS011;5183;51.190;6.820;2022-08-24T04:28:08;6.27;;;5.47;;
10275;SDS011;5183;51.190;6.820;2022-08-24T04:30:39;8.77;;;5.30;;
10275;SDS011;5183;51.190;6.820;2022-08-24T04:33:07;5.63;;;5.03;;
10275;SDS011;5183;51.190;6.820;2022-08-24T04:35:36;9.97;;;5.63;;
10275;SDS011;5183;51.190;6.820;2022-08-24T04:38:03;7.37;;;5.67;;
10275;SDS011;5183;51.190;6.820;2022-08-24T04:40:30;10.37;;;5.83;;
10275;SDS011;5183;51.190;6.820;2022-08-24T04:42:57;9.20;;;5.60;;
10275;SDS011;5183;51.190;6.820;2022-08-24T04:45:24;8.70;;;5.60;;
10275;SDS011;5183;51.190;6.820;2022-08-24T04:47:54;8.37;;;5.67;;
10275;SDS011;5183;51.190;6.820;2022-08-24T04:50:21;9.23;;;6.10;;
10275;SDS011;5183;51.190;6.820;2022-08-24T04:52:48;9.73;;;7.67;;
10275;SDS011;5183;51.190;6.820;2022-08-24T04:55:16;8.63;;;7.07;;
10275;SDS011;5183;51.190;6.820;2022-08-24T04:57:43;8.07;;;6.50;;
10275;SDS011;5183;51.190;6.820;2022-08-24T05:00:10;7.07;;;6.10;;
10275;SDS011;5183;51.190;6.820;2022-08-24T05:02:37;9.53;;;6.30;;
10275;SDS011;5183;51.190;6.820;2022-08-24T05:05:07;11.93;;;6.70;;
10275;SDS011;5183;51.190;6.820;2022-08-24T05:07:35;9.07;;;6.53;;
10275;SDS011;5183;51.190;6.820;2022-08-24T05:10:02;10.37;;;7.77;;
10275;SDS011;5183;51.190;6.820;2022-08-24T05:12:30;10.90;;;7.43;;
10275;SDS011;5183;51.190;6.820;2022-08-24T05:14:57;8.53;;;6.47;;
10275;SDS011;5183;51.190;6.820;2022-08-24T05:17:24;7.93;;;6.33;;
10275;SDS011;5183;51.190;6.820;2022-08-24T05:19:51;9.13;;;6.53;;
10275;SDS011;5183;51.190;6.820;2022-08-24T05:22:19;12.13;;;6.93;;
10275;SDS011;5183;51.190;6.820;2022-08-24T05:24:46;7.43;;;5.70;;
10275;SDS011;5183;51.190;6.820;2022-08-24T05:27:13;7.17;;;5.93;;
10275;SDS011;5183;51.190;6.820;2022-08-24T05:29:40;8.13;;;7.00;;
10275;SDS011;5183;51.190;6.820;2022-08-24T05:32:07;9.97;;;6.77;;
10275;SDS011;5183;51.190;6.820;2022-08-24T05:34:34;9.27;;;7.10;;
10275;SDS011;5183;51.190;6.820;2022-08-24T05:37:00;8.13;;;6.07;;
10275;SDS011;5183;51.190;6.820;2022-08-24T05:39:29;9.57;;;6.33;;
10275;SDS011;5183;51.190;6.820;2022-08-24T05:41:56;10.27;;;6.13;;
10275;SDS011;5183;51.190;6.820;2022-08-24T05:44:25;7.17;;;5.93;;
10275;SDS011;5183;51.190;6.820;2022-08-24T05:46:54;10.18;;;7.20;;
10275;SDS011;5183;51.190;6.820;2022-08-24T05:49:22;10.03;;;8.47;;
10275;SDS011;5183;51.190;6.820;2022-08-24T05:51:49;8.13;;;7.20;;
10275;SDS011;5183;51.190;6.820;2022-08-24T05:54:16;8.37;;;6.83;;
10275;SDS011;5183;51.190;6.820;2022-08-24T05:56:44;10.40;;;7.10;;
10275;SDS011;5183;51.190;6.820;2022-08-24T05:59:12;10.47;;;6.53;;
10275;SDS011;5183;51.190;6.820;2022-08-24T06:01:40;9.40;;;6.70;;
10275;SDS011;5183;51.190;6.820;2022-08-24T06:04:07;9.27;;;5.73;;
10275;SDS011;5183;51.190;6.820;2022-08-24T06:06:34;8.53;;;5.27;;
10275;SDS011;5183;51.190;6.820;2022-08-24T06:09:01;7.17;;;5.40;;
10275;SDS011;5183;51.190;6.820;2022-08-24T06:11:29;8.20;;;5.47;;
10275;SDS011;5183;51.190;6.820;2022-08-24T06:13:59;7.60;;;4.87;;
10275;SDS011;5183;51.190;6.820;2022-08-24T06:16:28;8.70;;;5.00;;
10275;SDS011;5183;51.190;6.820;2022-08-24T06:18:55;6.80;;;4.27;;
10275;SDS011;5183;51.190;6.820;2022-08-24T06:21:23;5.90;;;4.00;;
10275;SDS011;5183;51.190;6.820;2022-08-24T06:23:51;6.07;;;4.17;;
10275;SDS011;5183;51.190;6.820;2022-08-24T06:26:18;5.87;;;4.30;;
10275;SDS011;5183;51.190;6.820;2022-08-24T06:29:05;6.37;;;4.07;;
10275;SDS011;5183;51.190;6.820;2022-08-24T06:31:34;5.57;;;3.80;;
10275;SDS011;5183;51.190;6.820;2022-08-24T06:34:02;4.83;;;3.83;;
10275;SDS011;5183;51.190;6.820;2022-08-24T06:36:28;4.73;;;3.80;;
10275;SDS011;5183;51.190;6.820;2022-08-24T06:38:55;6.77;;;3.80;;
10275;SDS011;5183;51.190;6.820;2022-08-24T06:41:22;6.10;;;3.90;;
10275;SDS011;5183;51.190;6.820;2022-08-24T06:43:49;4.63;;;3.70;;
10275;SDS011;5183;51.190;6.820;2022-08-24T06:46:18;5.23;;;4.10;;
10275;SDS011;5183;51.190;6.820;2022-08-24T06:48:45;5.37;;;3.70;;
10275;SDS011;5183;51.190;6.820;2022-08-24T06:51:13;7.10;;;3.67;;
10275;SDS011;5183;51.190;6.820;2022-08-24T06:53:42;15.13;;;13.50;;
10275;SDS011;5183;51.190;6.820;2022-08-24T06:56:09;6.37;;;5.57;;
10275;SDS011;5183;51.190;6.820;2022-08-24T06:58:37;5.93;;;4.00;;
10275;SDS011;5183;51.190;6.820;2022-08-24T07:01:07;4.43;;;3.90;;
10275;SDS011;5183;51.190;6.820;2022-08-24T07:03:36;4.17;;;3.50;;
10275;SDS011;5183;51.190;6.820;2022-08-24T07:06:03;8.43;;;4.10;;
10275;SDS011;5183;51.190;6.820;2022-08-24T07:08:31;6.73;;;4.13;;
10275;SDS011;5183;51.190;6.820;2022-08-24T07:10:59;5.77;;;3.73;;
10275;SDS011;5183;51.190;6.820;2022-08-24T07:13:27;5.03;;;3.63;;
10275;SDS011;5183;51.190;6.820;2022-08-24T07:15:55;5.57;;;3.40;;
10275;SDS011;5183;51.190;6.820;2022-08-24T07:18:22;8.83;;;4.10;;
10275;SDS011;5183;51.190;6.820;2022-08-24T07:20:50;7.23;;;3.90;;
10275;SDS011;5183;51.190;6.820;2022-08-24T07:23:18;6.13;;;3.70;;
10275;SDS011;5183;51.190;6.820;2022-08-24T07:25:46;5.33;;;3.70;;
10275;SDS011;5183;51.190;6.820;2022-08-24T07:28:14;8.73;;;3.77;;
10275;SDS011;5183;51.190;6.820;2022-08-24T07:30:41;15.87;;;5.43;;
10275;SDS011;5183;51.190;6.820;2022-08-24T07:33:09;10.10;;;4.20;;
10275;SDS011;5183;51.190;6.820;2022-08-24T07:35:36;8.97;;;4.63;;
10275;SDS011;5183;51.190;6.820;2022-08-24T07:38:05;6.30;;;4.53;;
10275;SDS011;5183;51.190;6.820;2022-08-24T07:40:33;6.33;;;3.67;;
10275;SDS011;5183;51.190;6.820;2022-08-24T07:43:00;7.07;;;4.00;;
10275;SDS011;5183;51.190;6.820;2022-08-24T07:45:28;7.50;;;3.80;;
10275;SDS011;5183;51.190;6.820;2022-08-24T07:47:57;10.07;;;4.20;;
10275;SDS011;5183;51.190;6.820;2022-08-24T07:50:28;4.97;;;3.50;;
10275;SDS011;5183;51.190;6.820;2022-08-24T07:52:56;8.87;;;4.33;;
10275;SDS011;5183;51.190;6.820;2022-08-24T07:55:24;6.23;;;3.90;;
10275;SDS011;5183;51.190;6.820;2022-08-24T07:57:51;6.17;;;3.47;;
10275;SDS011;5183;51.190;6.820;2022-08-24T08:00:18;7.93;;;4.60;;
10275;SDS011;5183;51.190;6.820;2022-08-24T08:02:46;4.87;;;3.97;;
10275;SDS011;5183;51.190;6.820;2022-08-24T08:05:14;5.83;;;3.70;;
10275;SDS011;5183;51.190;6.820;2022-08-24T08:07:42;9.87;;;5.73;;
10275;SDS011;5183;51.190;6.820;2022-08-24T08:10:09;5.40;;;3.87;;
10275;SDS011;5183;51.190;6.820;2022-08-24T08:12:38;5.10;;;3.33;;
10275;SDS011;5183;51.190;6.820;2022-08-24T08:15:06;3.67;;;3.30;;
10275;SDS011;5183;51.190;6.820;2022-08-24T08:17:33;6.10;;;3.63;;
10275;SDS011;5183;51.190;6.820;2022-08-24T08:20:01;5.70;;;3.50;;
10275;SDS011;5183;51.190;6.820;2022-08-24T08:22:28;7.57;;;3.80;;
10275;SDS011;5183;51.190;6.820;2022-08-24T08:25:12;4.80;;;3.57;;
10275;SDS011;5183;51.190;6.820;2022-08-24T08:27:41;4.83;;;3.43;;
10275;SDS011;5183;51.190;6.820;2022-08-24T08:30:08;5.93;;;3.87;;
10275;SDS011;5183;51.190;6.820;2022-08-24T08:32:36;4.77;;;3.40;;
10275;SDS011;5183;51.190;6.820;2022-08-24T08:35:03;4.83;;;3.53;;
10275;SDS011;5183;51.190;6.820;2022-08-24T08:37:31;11.63;;;4.17;;
10275;SDS011;5183;51.190;6.820;2022-08-24T08:39:58;6.40;;;3.87;;
10275;SDS011;5183;51.190;6.820;2022-08-24T08:42:28;6.50;;;3.63;;
10275;SDS011;5183;51.190;6.820;2022-08-24T08:45:23;7.33;;;3.70;;
10275;SDS011;5183;51.190;6.820;2022-08-24T08:48:03;6.80;;;3.47;;
10275;SDS011;5183;51.190;6.820;2022-08-24T08:50:49;6.17;;;3.47;;
10275;SDS011;5183;51.190;6.820;2022-08-24T08:53:39;6.90;;;3.57;;
10275;SDS011;5183;51.190;6.820;2022-08-24T08:56:50;6.63;;;4.10;;
10275;SDS011;5183;51.190;6.820;2022-08-24T08:59:34;6.27;;;3.77;;
10275;SDS011;5183;51.190;6.820;2022-08-24T09:02:16;10.00;;;3.93;;
10275;SDS011;5183;51.190;6.820;2022-08-24T09:04:56;8.07;;;4.17;;
10275;SDS011;5183;51.190;6.820;2022-08-24T09:07:38;5.50;;;3.57;;
10275;SDS011;5183;51.190;6.820;2022-08-24T09:13:13;5.67;;;4.43;;
10275;SDS011;5183;51.190;6.820;2022-08-24T09:15:55;5.47;;;3.40;;
10275;SDS011;5183;51.190;6.820;2022-08-24T09:18:42;7.30;;;3.20;;
10275;SDS011;5183;51.190;6.820;2022-08-24T09:21:24;4.73;;;3.23;;
10275;SDS011;5183;51.190;6.820;2022-08-24T09:24:12;7.60;;;3.37;;
10275;SDS011;5183;51.190;6.820;2022-08-24T09:26:55;4.82;;;3.38;;
10275;SDS011;5183;51.190;6.820;2022-08-24T09:29:39;5.50;;;2.90;;
10275;SDS011;5183;51.190;6.820;2022-08-24T09:32:24;5.27;;;3.43;;
10275;SDS011;5183;51.190;6.820;2022-08-24T09:35:03;7.37;;;3.43;;
10275;SDS011;5183;51.190;6.820;2022-08-24T09:37:33;4.72;;;3.17;;
10275;SDS011;5183;51.190;6.820;2022-08-24T09:40:24;4.10;;;3.60;;
10275;SDS011;5183;51.190;6.820;2022-08-24T09:49:09;7.13;;;3.13;;
10275;SDS011;5183;51.190;6.820;2022-08-24T09:55:07;6.72;;;3.30;;
10275;SDS011;5183;51.190;6.820;2022-08-24T09:58:00;6.32;;;3.47;;
10275;SDS011;5183;51.190;6.820;2022-08-24T10:00:36;5.60;;;3.33;;
10275;SDS011;5183;51.190;6.820;2022-08-24T10:03:21;4.35;;;3.20;;
10275;SDS011;5183;51.190;6.820;2022-08-24T10:06:00;5.05;;;2.88;;
10275;SDS011;5183;51.190;6.820;2022-08-24T10:08:42;8.30;;;3.70;;
10275;SDS011;5183;51.190;6.820;2022-08-24T10:11:24;4.22;;;2.85;;
10275;SDS011;5183;51.190;6.820;2022-08-24T10:14:02;4.32;;;2.85;;
10275;SDS011;5183;51.190;6.820;2022-08-24T10:16:36;6.78;;;5.05;;
10275;SDS011;5183;51.190;6.820;2022-08-24T10:22:05;4.63;;;3.10;;
10275;SDS011;5183;51.190;6.820;2022-08-24T10:24:47;5.65;;;3.40;;
10275;SDS011;5183;51.190;6.820;2022-08-24T10:27:30;6.53;;;3.20;;
10275;SDS011;5183;51.190;6.820;2022-08-24T10:33:05;3.95;;;3.45;;
10275;SDS011;5183;51.190;6.820;2022-08-24T10:35:45;5.88;;;3.35;;
10275;SDS011;5183;51.190;6.820;2022-08-24T10:38:29;6.25;;;3.20;;
10275;SDS011;5183;51.190;6.820;2022-08-24T10:44:34;6.55;;;3.15;;
10275;SDS011;5183;51.190;6.820;2022-08-24T10:47:11;5.10;;;3.35;;
10275;SDS011;5183;51.190;6.820;2022-08-24T10:52:52;8.10;;;3.30;;
10275;SDS011;5183;51.190;6.820;2022-08-24T10:55:46;5.60;;;3.00;;
10275;SDS011;5183;51.190;6.820;2022-08-24T10:58:29;5.97;;;2.70;;
10275;SDS011;5183;51.190;6.820;2022-08-24T11:01:16;4.63;;;2.95;;
10275;SDS011;5183;51.190;6.820;2022-08-24T11:03:51;4.70;;;3.08;;
10275;SDS011;5183;51.190;6.820;2022-08-24T11:06:21;4.85;;;2.72;;
10275;SDS011;5183;51.190;6.820;2022-08-24T11:08:50;7.63;;;2.75;;
10275;SDS011;5183;51.190;6.820;2022-08-24T11:11:22;4.22;;;2.90;;
10275;SDS011;5183;51.190;6.820;2022-08-24T11:13:51;4.07;;;2.80;;
10275;SDS011;5183;51.190;6.820;2022-08-24T11:16:25;5.93;;;2.90;;
10275;SDS011;5183;51.190;6.820;2022-08-24T11:18:55;3.75;;;2.80;;
10275;SDS011;5183;51.190;6.820;2022-08-24T11:21:33;3.40;;;2.50;;
10275;SDS011;5183;51.190;6.820;2022-08-24T11:24:08;5.78;;;3.20;;
10275;SDS011;5183;51.190;6.820;2022-08-24T11:26:50;5.53;;;2.45;;
10275;SDS011;5183;51.190;6.820;2022-08-24T11:29:20;3.90;;;2.72;;
10275;SDS011;5183;51.190;6.820;2022-08-24T11:31:50;4.25;;;2.60;;
10275;SDS011;5183;51.190;6.820;2022-08-24T11:34:18;4.38;;;2.63;;
10275;SDS011;5183;51.190;6.820;2022-08-24T11:36:57;4.90;;;2.58;;
10275;SDS011;5183;51.190;6.820;2022-08-24T11:39:25;4.03;;;2.42;;
10275;SDS011;5183;51.190;6.820;2022-08-24T11:41:57;3.88;;;2.25;;
10275;SDS011;5183;51.190;6.820;2022-08-24T11:44:36;3.90;;;2.20;;
10275;SDS011;5183;51.190;6.820;2022-08-24T11:47:26;2.38;;;1.58;;
10275;SDS011;5183;51.190;6.820;2022-08-24T11:50:17;1.65;;;1.50;;
10275;SDS011;5183;51.190;6.820;2022-08-24T11:52:56;2.55;;;1.50;;
10275;SDS011;5183;51.190;6.820;2022-08-24T11:55:29;4.80;;;1.80;;
10275;SDS011;5183;51.190;6.820;2022-08-24T11:58:01;2.47;;;1.63;;
10275;SDS011;5183;51.190;6.820;2022-08-24T12:00:37;2.03;;;1.70;;
10275;SDS011;5183;51.190;6.820;2022-08-24T12:03:15;2.10;;;1.50;;
10275;SDS011;5183;51.190;6.820;2022-08-24T12:05:55;2.42;;;2.22;;
10275;SDS011;5183;51.190;6.820;2022-08-24T12:08:26;2.10;;;1.48;;
10275;SDS011;5183;51.190;6.820;2022-08-24T12:11:00;3.20;;;1.70;;
10275;SDS011;5183;51.190;6.820;2022-08-24T12:13:35;3.50;;;1.95;;
10275;SDS011;5183;51.190;6.820;2022-08-24T12:16:09;4.15;;;1.80;;
10275;SDS011;5183;51.190;6.820;2022-08-24T12:18:45;3.63;;;1.63;;
10275;SDS011;5183;51.190;6.820;2022-08-24T12:21:21;3.10;;;1.50;;
10275;SDS011;5183;51.190;6.820;2022-08-24T12:23:51;2.90;;;1.80;;
10275;SDS011;5183;51.190;6.820;2022-08-24T12:26:24;4.13;;;2.00;;
10275;SDS011;5183;51.190;6.820;2022-08-24T12:28:54;3.03;;;1.90;;
10275;SDS011;5183;51.190;6.820;2022-08-24T12:31:31;2.67;;;1.83;;
10275;SDS011;5183;51.190;6.820;2022-08-24T12:34:04;2.15;;;1.80;;
10275;SDS011;5183;51.190;6.820;2022-08-24T12:36:37;3.00;;;1.98;;
10275;SDS011;5183;51.190;6.820;2022-08-24T12:39:12;2.40;;;1.92;;
10275;SDS011;5183;51.190;6.820;2022-08-24T12:41:47;2.97;;;1.73;;
10275;SDS011;5183;51.190;6.820;2022-08-24T12:44:20;3.10;;;1.70;;
10275;SDS011;5183;51.190;6.820;2022-08-24T12:46:51;1.65;;;1.55;;
10275;SDS011;5183;51.190;6.820;2022-08-24T12:49:22;4.53;;;1.58;;
10275;SDS011;5183;51.190;6.820;2022-08-24T12:52:11;2.95;;;1.60;;
10275;SDS011;5183;51.190;6.820;2022-08-24T12:54:56;4.35;;;1.75;;
10275;SDS011;5183;51.190;6.820;2022-08-24T12:57:49;3.83;;;1.67;;
10275;SDS011;5183;51.190;6.820;2022-08-24T13:00:31;4.00;;;1.95;;
10275;SDS011;5183;51.190;6.820;2022-08-24T13:03:02;3.38;;;1.83;;
10275;SDS011;5183;51.190;6.820;2022-08-24T13:05:41;3.00;;;1.73;;
10275;SDS011;5183;51.190;6.820;2022-08-24T13:08:11;2.17;;;1.50;;
10275;SDS011;5183;51.190;6.820;2022-08-24T13:10:44;2.67;;;1.60;;
10275;SDS011;5183;51.190;6.820;2022-08-24T13:13:20;2.45;;;1.80;;
10275;SDS011;5183;51.190;6.820;2022-08-24T13:16:03;2.05;;;1.67;;
10275;SDS011;5183;51.190;6.820;2022-08-24T13:21:43;4.38;;;1.80;;
10275;SDS011;5183;51.190;6.820;2022-08-24T13:30:18;3.25;;;1.80;;
10275;SDS011;5183;51.190;6.820;2022-08-24T13:32:54;3.05;;;1.77;;
10275;SDS011;5183;51.190;6.820;2022-08-24T13:38:29;2.28;;;1.80;;
10275;SDS011;5183;51.190;6.820;2022-08-24T13:41:16;3.30;;;1.70;;
10275;SDS011;5183;51.190;6.820;2022-08-24T13:43:57;4.20;;;1.88;;
10275;SDS011;5183;51.190;6.820;2022-08-24T13:46:38;3.33;;;1.65;;
10275;SDS011;5183;51.190;6.820;2022-08-24T13:49:16;1.92;;;1.42;;
10275;SDS011;5183;51.190;6.820;2022-08-24T13:51:55;1.70;;;1.52;;
10275;SDS011;5183;51.190;6.820;2022-08-24T13:54:38;2.58;;;1.55;;
10275;SDS011;5183;51.190;6.820;2022-08-24T13:57:27;3.40;;;1.80;;
10275;SDS011;5183;51.190;6.820;2022-08-24T14:03:18;3.42;;;1.60;;
10275;SDS011;5183;51.190;6.820;2022-08-24T14:06:02;1.90;;;1.40;;
10275;SDS011;5183;51.190;6.820;2022-08-24T14:08:59;3.33;;;1.65;;
10275;SDS011;5183;51.190;6.820;2022-08-24T14:11:40;3.08;;;2.10;;
10275;SDS011;5183;51.190;6.820;2022-08-24T14:14:20;2.03;;;1.65;;
10275;SDS011;5183;51.190;6.820;2022-08-24T14:17:01;3.33;;;1.70;;
10275;SDS011;5183;51.190;6.820;2022-08-24T14:20:06;3.85;;;1.70;;
10275;SDS011;5183;51.190;6.820;2022-08-24T14:22:40;2.22;;;1.40;;
10275;SDS011;5183;51.190;6.820;2022-08-24T14:25:22;2.30;;;1.50;;
10275;SDS011;5183;51.190;6.820;2022-08-24T14:28:20;2.65;;;1.42;;
10275;SDS011;5183;51.190;6.820;2022-08-24T14:31:12;3.33;;;2.03;;
10275;SDS011;5183;51.190;6.820;2022-08-24T14:33:46;1.95;;;1.50;;
10275;SDS011;5183;51.190;6.820;2022-08-24T14:36:23;3.47;;;1.83;;
10275;SDS011;5183;51.190;6.820;2022-08-24T14:39:07;3.00;;;1.80;;
10275;SDS011;5183;51.190;6.820;2022-08-24T14:41:42;2.35;;;1.90;;
10275;SDS011;5183;51.190;6.820;2022-08-24T14:44:27;3.50;;;2.03;;
10275;SDS011;5183;51.190;6.820;2022-08-24T14:47:07;4.05;;;1.85;;
10275;SDS011;5183;51.190;6.820;2022-08-24T14:49:55;3.55;;;1.90;;
10275;SDS011;5183;51.190;6.820;2022-08-24T14:52:38;4.72;;;3.45;;
10275;SDS011;5183;51.190;6.820;2022-08-24T14:55:11;2.63;;;2.00;;
10275;SDS011;5183;51.190;6.820;2022-08-24T14:57:52;4.05;;;2.08;;
10275;SDS011;5183;51.190;6.820;2022-08-24T15:00:46;3.10;;;1.65;;
10275;SDS011;5183;51.190;6.820;2022-08-24T15:06:27;3.45;;;2.15;;
10275;SDS011;5183;51.190;6.820;2022-08-24T15:09:06;4.88;;;3.53;;
10275;SDS011;5183;51.190;6.820;2022-08-24T15:11:37;4.25;;;2.78;;
10275;SDS011;5183;51.190;6.820;2022-08-24T15:14:07;3.70;;;2.47;;
10275;SDS011;5183;51.190;6.820;2022-08-24T15:16:44;3.60;;;2.60;;
10275;SDS011;5183;51.190;6.820;2022-08-24T15:19:14;4.13;;;2.50;;
10275;SDS011;5183;51.190;6.820;2022-08-24T15:21:47;3.25;;;1.90;;
10275;SDS011;5183;51.190;6.820;2022-08-24T15:24:26;1.70;;;1.60;;
10275;SDS011;5183;51.190;6.820;2022-08-24T15:27:06;2.55;;;1.65;;
10275;SDS011;5183;51.190;6.820;2022-08-24T15:29:47;2.33;;;2.13;;
10275;SDS011;5183;51.190;6.820;2022-08-24T15:32:19;5.40;;;2.53;;
10275;SDS011;5183;51.190;6.820;2022-08-24T15:34:48;4.63;;;3.13;;
10275;SDS011;5183;51.190;6.820;2022-08-24T15:37:24;1.65;;;1.52;;
10275;SDS011;5183;51.190;6.820;2022-08-24T15:39:54;2.25;;;1.80;;
10275;SDS011;5183;51.190;6.820;2022-08-24T15:42:21;3.58;;;1.88;;
10275;SDS011;5183;51.190;6.820;2022-08-24T15:44:48;4.75;;;2.00;;
10275;SDS011;5183;51.190;6.820;2022-08-24T15:47:20;2.92;;;2.28;;
10275;SDS011;5183;51.190;6.820;2022-08-24T15:49:53;2.92;;;1.60;;
10275;SDS011;5183;51.190;6.820;2022-08-24T15:52:36;3.03;;;2.75;;
10275;SDS011;5183;51.190;6.820;2022-08-24T15:55:07;3.33;;;2.33;;
10275;SDS011;5183;51.190;6.820;2022-08-24T15:57:51;4.60;;;1.90;;
10275;SDS011;5183;51.190;6.820;2022-08-24T16:00:21;3.30;;;2.22;;
10275;SDS011;5183;51.190;6.820;2022-08-24T16:06:16;3.15;;;1.60;;
10275;SDS011;5183;51.190;6.820;2022-08-24T16:08:54;3.15;;;1.60;;
10275;SDS011;5183;51.190;6.820;2022-08-24T16:11:29;1.67;;;1.55;;
10275;SDS011;5183;51.190;6.820;2022-08-24T16:13:59;3.10;;;1.90;;
10275;SDS011;5183;51.190;6.820;2022-08-24T16:16:31;2.10;;;1.80;;
10275;SDS011;5183;51.190;6.820;2022-08-24T16:19:02;3.40;;;1.73;;
10275;SDS011;5183;51.190;6.820;2022-08-24T16:21:33;4.05;;;1.60;;